sensor_id;sensor_type;location;lat;lon;timestamp;P1;durP1;ratioP1;P2;durP2;ratioP2
23101;SDS011;11720;51.214;22.574;2023-08-08T00:02:21;4.45;;;2.63;;
23101;SDS011;11720;51.214;22.574;2023-08-08T00:04:48;4.05;;;2.20;;
23101;SDS011;11720;51.214;22.574;2023-08-08T00:07:15;3.58;;;2.28;;
23101;SDS011;11720;51.214;22.574;2023-08-08T00:09:40;3.58;;;2.40;;
23101;SDS011;11720;51.214;22.574;2023-08-08T00:12:06;3.03;;;2.20;;
23101;SDS011;11720;51.214;22.574;2023-08-08T00:14:32;4.20;;;2.40;;
23101;SDS011;11720;51.214;22.574;2023-08-08T00:16:57;3.38;;;2.50;;
23101;SDS011;11720;51.214;22.574;2023-08-08T00:19:23;3.28;;;2.38;;
23101;SDS011;11720;51.214;22.574;2023-08-08T00:21:49;2.45;;;2.20;;
23101;SDS011;11720;51.214;22.574;2023-08-08T00:24:14;3.85;;;2.63;;
23101;SDS011;11720;51.214;22.574;2023-08-08T00:26:40;5.90;;;2.30;;
23101;SDS011;11720;51.214;22.574;2023-08-08T00:29:05;9.75;;;3.00;;
23101;SDS011;11720;51.214;22.574;2023-08-08T00:31:31;4.82;;;2.53;;
23101;SDS011;11720;51.214;22.574;2023-08-08T00:33:57;5.30;;;2.67;;
23101;SDS011;11720;51.214;22.574;2023-08-08T00:36:22;3.60;;;2.50;;
23101;SDS011;11720;51.214;22.574;2023-08-08T00:38:48;3.30;;;2.20;;
23101;SDS011;11720;51.214;22.574;2023-08-08T00:41:14;4.50;;;2.50;;
23101;SDS011;11720;51.214;22.574;2023-08-08T00:43:40;5.00;;;2.33;;
23101;SDS011;11720;51.214;22.574;2023-08-08T00:46:06;5.35;;;2.38;;
23101;SDS011;11720;51.214;22.574;2023-08-08T00:48:31;3.30;;;2.20;;
23101;SDS011;11720;51.214;22.574;2023-08-08T00:50:57;5.15;;;2.35;;
23101;SDS011;11720;51.214;22.574;2023-08-08T00:53:24;4.03;;;2.55;;
23101;SDS011;11720;51.214;22.574;2023-08-08T00:55:51;4.57;;;2.20;;
23101;SDS011;11720;51.214;22.574;2023-08-08T00:58:18;2.67;;;2.42;;
23101;SDS011;11720;51.214;22.574;2023-08-08T01:00:44;4.40;;;2.50;;
23101;SDS011;11720;51.214;22.574;2023-08-08T01:03:10;5.07;;;2.65;;
23101;SDS011;11720;51.214;22.574;2023-08-08T01:05:38;3.75;;;2.42;;
23101;SDS011;11720;51.214;22.574;2023-08-08T01:08:09;3.83;;;2.38;;
23101;SDS011;11720;51.214;22.574;2023-08-08T01:10:40;6.95;;;2.42;;
23101;SDS011;11720;51.214;22.574;2023-08-08T01:13:11;6.20;;;2.10;;
23101;SDS011;11720;51.214;22.574;2023-08-08T01:15:46;3.63;;;2.53;;
23101;SDS011;11720;51.214;22.574;2023-08-08T01:18:14;2.97;;;2.13;;
23101;SDS011;11720;51.214;22.574;2023-08-08T01:20:41;3.88;;;2.72;;
23101;SDS011;11720;51.214;22.574;2023-08-08T01:23:21;2.58;;;2.22;;
23101;SDS011;11720;51.214;22.574;2023-08-08T01:25:58;4.72;;;2.17;;
23101;SDS011;11720;51.214;22.574;2023-08-08T01:28:25;5.55;;;2.38;;
23101;SDS011;11720;51.214;22.574;2023-08-08T01:30:51;2.55;;;2.35;;
23101;SDS011;11720;51.214;22.574;2023-08-08T01:33:18;3.90;;;2.67;;
23101;SDS011;11720;51.214;22.574;2023-08-08T01:35:45;4.28;;;2.70;;
23101;SDS011;11720;51.214;22.574;2023-08-08T01:38:31;4.50;;;2.33;;
23101;SDS011;11720;51.214;22.574;2023-08-08T01:41:01;2.83;;;2.40;;
23101;SDS011;11720;51.214;22.574;2023-08-08T01:43:29;4.40;;;2.55;;
23101;SDS011;11720;51.214;22.574;2023-08-08T01:45:56;6.47;;;2.33;;
23101;SDS011;11720;51.214;22.574;2023-08-08T01:48:22;4.47;;;2.30;;
23101;SDS011;11720;51.214;22.574;2023-08-08T01:50:48;3.40;;;2.33;;
23101;SDS011;11720;51.214;22.574;2023-08-08T01:53:13;4.50;;;2.58;;
23101;SDS011;11720;51.214;22.574;2023-08-08T01:55:39;2.92;;;2.45;;
23101;SDS011;11720;51.214;22.574;2023-08-08T01:58:05;3.42;;;2.63;;
23101;SDS011;11720;51.214;22.574;2023-08-08T02:00:31;3.22;;;2.17;;
23101;SDS011;11720;51.214;22.574;2023-08-08T02:02:56;5.45;;;2.42;;
23101;SDS011;11720;51.214;22.574;2023-08-08T02:05:23;4.30;;;2.45;;
23101;SDS011;11720;51.214;22.574;2023-08-08T02:07:49;2.50;;;2.30;;
23101;SDS011;11720;51.214;22.574;2023-08-08T02:10:14;2.88;;;1.95;;
23101;SDS011;11720;51.214;22.574;2023-08-08T02:12:40;4.70;;;2.38;;
23101;SDS011;11720;51.214;22.574;2023-08-08T02:15:06;2.08;;;1.88;;
23101;SDS011;11720;51.214;22.574;2023-08-08T02:17:32;2.58;;;2.00;;
23101;SDS011;11720;51.214;22.574;2023-08-08T02:19:57;2.75;;;2.03;;
23101;SDS011;11720;51.214;22.574;2023-08-08T02:22:23;3.33;;;2.17;;
23101;SDS011;11720;51.214;22.574;2023-08-08T02:24:50;6.82;;;2.33;;
23101;SDS011;11720;51.214;22.574;2023-08-08T02:27:15;3.28;;;2.30;;
23101;SDS011;11720;51.214;22.574;2023-08-08T02:29:41;3.83;;;2.38;;
23101;SDS011;11720;51.214;22.574;2023-08-08T02:32:07;2.20;;;1.50;;
23101;SDS011;11720;51.214;22.574;2023-08-08T02:34:32;5.30;;;2.20;;
23101;SDS011;11720;51.214;22.574;2023-08-08T02:36:58;5.00;;;2.33;;
23101;SDS011;11720;51.214;22.574;2023-08-08T02:39:24;2.22;;;2.00;;
23101;SDS011;11720;51.214;22.574;2023-08-08T02:41:49;7.20;;;2.72;;
23101;SDS011;11720;51.214;22.574;2023-08-08T02:44:15;3.38;;;2.10;;
23101;SDS011;11720;51.214;22.574;2023-08-08T02:46:40;3.15;;;1.90;;
23101;SDS011;11720;51.214;22.574;2023-08-08T02:49:06;5.32;;;1.95;;
23101;SDS011;11720;51.214;22.574;2023-08-08T02:51:32;4.22;;;2.17;;
23101;SDS011;11720;51.214;22.574;2023-08-08T02:53:57;4.97;;;2.22;;
23101;SDS011;11720;51.214;22.574;2023-08-08T02:56:23;8.35;;;2.42;;
23101;SDS011;11720;51.214;22.574;2023-08-08T02:58:49;1.92;;;1.67;;
23101;SDS011;11720;51.214;22.574;2023-08-08T03:01:14;7.07;;;2.10;;
23101;SDS011;11720;51.214;22.574;2023-08-08T03:03:40;2.42;;;1.92;;
23101;SDS011;11720;51.214;22.574;2023-08-08T03:06:06;4.20;;;1.67;;
23101;SDS011;11720;51.214;22.574;2023-08-08T03:08:32;3.17;;;2.20;;
23101;SDS011;11720;51.214;22.574;2023-08-08T03:10:58;4.55;;;1.90;;
23101;SDS011;11720;51.214;22.574;2023-08-08T03:13:24;9.60;;;1.98;;
23101;SDS011;11720;51.214;22.574;2023-08-08T03:15:49;4.40;;;1.80;;
23101;SDS011;11720;51.214;22.574;2023-08-08T03:18:15;3.15;;;1.98;;
23101;SDS011;11720;51.214;22.574;2023-08-08T03:20:41;1.75;;;1.23;;
23101;SDS011;11720;51.214;22.574;2023-08-08T03:23:06;3.00;;;1.55;;
23101;SDS011;11720;51.214;22.574;2023-08-08T03:25:32;3.00;;;1.63;;
23101;SDS011;11720;51.214;22.574;2023-08-08T03:27:58;4.38;;;2.30;;
23101;SDS011;11720;51.214;22.574;2023-08-08T03:30:23;1.77;;;1.50;;
23101;SDS011;11720;51.214;22.574;2023-08-08T03:32:49;2.08;;;1.60;;
23101;SDS011;11720;51.214;22.574;2023-08-08T03:35:15;6.20;;;1.85;;
23101;SDS011;11720;51.214;22.574;2023-08-08T03:37:41;2.22;;;1.48;;
23101;SDS011;11720;51.214;22.574;2023-08-08T03:40:07;6.65;;;2.00;;
23101;SDS011;11720;51.214;22.574;2023-08-08T03:42:33;1.98;;;1.55;;
23101;SDS011;11720;51.214;22.574;2023-08-08T03:44:59;4.88;;;1.80;;
23101;SDS011;11720;51.214;22.574;2023-08-08T03:47:25;1.58;;;1.30;;
23101;SDS011;11720;51.214;22.574;2023-08-08T03:49:51;2.22;;;1.70;;
23101;SDS011;11720;51.214;22.574;2023-08-08T03:52:20;4.88;;;1.70;;
23101;SDS011;11720;51.214;22.574;2023-08-08T03:54:46;3.72;;;1.88;;
23101;SDS011;11720;51.214;22.574;2023-08-08T03:57:12;1.60;;;1.50;;
23101;SDS011;11720;51.214;22.574;2023-08-08T03:59:38;4.88;;;1.55;;
23101;SDS011;11720;51.214;22.574;2023-08-08T04:02:04;1.75;;;1.48;;
23101;SDS011;11720;51.214;22.574;2023-08-08T04:04:30;1.85;;;1.40;;
23101;SDS011;11720;51.214;22.574;2023-08-08T04:06:55;4.85;;;1.80;;
23101;SDS011;11720;51.214;22.574;2023-08-08T04:09:22;5.05;;;1.80;;
23101;SDS011;11720;51.214;22.574;2023-08-08T04:11:47;4.95;;;1.95;;
23101;SDS011;11720;51.214;22.574;2023-08-08T04:14:13;4.35;;;1.58;;
23101;SDS011;11720;51.214;22.574;2023-08-08T04:16:39;2.92;;;1.55;;
23101;SDS011;11720;51.214;22.574;2023-08-08T04:19:05;2.22;;;1.50;;
23101;SDS011;11720;51.214;22.574;2023-08-08T04:21:30;1.42;;;1.25;;
23101;SDS011;11720;51.214;22.574;2023-08-08T04:23:59;2.58;;;1.30;;
23101;SDS011;11720;51.214;22.574;2023-08-08T04:26:25;3.30;;;1.25;;
23101;SDS011;11720;51.214;22.574;2023-08-08T04:28:51;1.20;;;1.10;;
23101;SDS011;11720;51.214;22.574;2023-08-08T04:31:17;5.65;;;1.63;;
23101;SDS011;11720;51.214;22.574;2023-08-08T04:33:43;6.38;;;1.40;;
23101;SDS011;11720;51.214;22.574;2023-08-08T04:36:09;3.15;;;1.35;;
23101;SDS011;11720;51.214;22.574;2023-08-08T04:38:34;2.08;;;1.58;;
23101;SDS011;11720;51.214;22.574;2023-08-08T04:41:00;2.75;;;1.67;;
23101;SDS011;11720;51.214;22.574;2023-08-08T04:43:26;2.45;;;1.73;;
23101;SDS011;11720;51.214;22.574;2023-08-08T04:45:54;2.17;;;1.70;;
23101;SDS011;11720;51.214;22.574;2023-08-08T04:48:20;3.15;;;1.30;;
23101;SDS011;11720;51.214;22.574;2023-08-08T04:50:46;3.00;;;1.40;;
23101;SDS011;11720;51.214;22.574;2023-08-08T04:53:12;1.95;;;1.50;;
23101;SDS011;11720;51.214;22.574;2023-08-08T04:55:38;3.35;;;1.20;;
23101;SDS011;11720;51.214;22.574;2023-08-08T04:58:04;6.63;;;1.33;;
23101;SDS011;11720;51.214;22.574;2023-08-08T05:00:30;4.38;;;1.52;;
23101;SDS011;11720;51.214;22.574;2023-08-08T05:02:56;2.40;;;1.20;;
23101;SDS011;11720;51.214;22.574;2023-08-08T05:05:21;4.93;;;1.65;;
23101;SDS011;11720;51.214;22.574;2023-08-08T05:07:47;3.78;;;1.30;;
23101;SDS011;11720;51.214;22.574;2023-08-08T05:10:13;1.30;;;1.10;;
23101;SDS011;11720;51.214;22.574;2023-08-08T05:12:39;1.25;;;1.10;;
23101;SDS011;11720;51.214;22.574;2023-08-08T05:15:05;2.10;;;1.85;;
23101;SDS011;11720;51.214;22.574;2023-08-08T05:17:31;4.30;;;1.05;;
23101;SDS011;11720;51.214;22.574;2023-08-08T05:19:57;2.45;;;1.30;;
23101;SDS011;11720;51.214;22.574;2023-08-08T05:22:23;2.47;;;1.02;;
23101;SDS011;11720;51.214;22.574;2023-08-08T05:24:48;1.23;;;1.13;;
23101;SDS011;11720;51.214;22.574;2023-08-08T05:27:14;1.67;;;1.13;;
23101;SDS011;11720;51.214;22.574;2023-08-08T05:29:40;6.60;;;2.55;;
23101;SDS011;11720;51.214;22.574;2023-08-08T05:32:06;2.53;;;1.35;;
23101;SDS011;11720;51.214;22.574;2023-08-08T05:34:33;2.58;;;1.40;;
23101;SDS011;11720;51.214;22.574;2023-08-08T05:36:59;3.08;;;1.30;;
23101;SDS011;11720;51.214;22.574;2023-08-08T05:39:25;1.45;;;1.17;;
23101;SDS011;11720;51.214;22.574;2023-08-08T05:41:51;4.03;;;1.58;;
23101;SDS011;11720;51.214;22.574;2023-08-08T05:44:17;4.35;;;1.52;;
23101;SDS011;11720;51.214;22.574;2023-08-08T05:46:43;3.17;;;1.33;;
23101;SDS011;11720;51.214;22.574;2023-08-08T05:49:08;3.38;;;1.20;;
23101;SDS011;11720;51.214;22.574;2023-08-08T05:51:34;3.30;;;1.30;;
23101;SDS011;11720;51.214;22.574;2023-08-08T05:54:00;7.15;;;1.80;;
23101;SDS011;11720;51.214;22.574;2023-08-08T05:56:33;5.40;;;1.40;;
23101;SDS011;11720;51.214;22.574;2023-08-08T05:59:02;4.78;;;1.40;;
23101;SDS011;11720;51.214;22.574;2023-08-08T06:01:28;3.03;;;1.35;;
23101;SDS011;11720;51.214;22.574;2023-08-08T06:03:55;2.35;;;1.10;;
23101;SDS011;11720;51.214;22.574;2023-08-08T06:06:20;4.50;;;1.13;;
23101;SDS011;11720;51.214;22.574;2023-08-08T06:08:46;1.50;;;1.02;;
23101;SDS011;11720;51.214;22.574;2023-08-08T06:11:12;5.28;;;1.42;;
23101;SDS011;11720;51.214;22.574;2023-08-08T06:13:37;3.97;;;1.20;;
23101;SDS011;11720;51.214;22.574;2023-08-08T06:16:03;5.30;;;1.13;;
23101;SDS011;11720;51.214;22.574;2023-08-08T06:18:32;3.38;;;1.63;;
23101;SDS011;11720;51.214;22.574;2023-08-08T06:20:58;2.13;;;1.35;;
23101;SDS011;11720;51.214;22.574;2023-08-08T06:23:24;4.07;;;1.50;;
23101;SDS011;11720;51.214;22.574;2023-08-08T06:25:50;2.90;;;1.92;;
23101;SDS011;11720;51.214;22.574;2023-08-08T06:28:15;5.10;;;1.08;;
23101;SDS011;11720;51.214;22.574;2023-08-08T06:30:44;3.13;;;1.20;;
23101;SDS011;11720;51.214;22.574;2023-08-08T06:33:09;1.25;;;1.10;;
23101;SDS011;11720;51.214;22.574;2023-08-08T06:35:35;3.90;;;1.58;;
23101;SDS011;11720;51.214;22.574;2023-08-08T06:38:01;2.40;;;1.30;;
23101;SDS011;11720;51.214;22.574;2023-08-08T06:40:28;3.00;;;1.00;;
23101;SDS011;11720;51.214;22.574;2023-08-08T06:42:54;2.20;;;1.25;;
23101;SDS011;11720;51.214;22.574;2023-08-08T06:45:20;2.08;;;1.20;;
23101;SDS011;11720;51.214;22.574;2023-08-08T06:47:46;2.17;;;0.98;;
23101;SDS011;11720;51.214;22.574;2023-08-08T06:50:12;3.38;;;1.23;;
23101;SDS011;11720;51.214;22.574;2023-08-08T06:52:38;2.20;;;1.40;;
23101;SDS011;11720;51.214;22.574;2023-08-08T06:55:04;3.17;;;1.35;;
23101;SDS011;11720;51.214;22.574;2023-08-08T06:57:33;4.05;;;1.20;;
23101;SDS011;11720;51.214;22.574;2023-08-08T07:00:00;1.95;;;1.15;;
23101;SDS011;11720;51.214;22.574;2023-08-08T07:02:26;2.50;;;1.05;;
23101;SDS011;11720;51.214;22.574;2023-08-08T07:04:51;2.05;;;1.13;;
23101;SDS011;11720;51.214;22.574;2023-08-08T07:07:17;19.55;;;1.30;;
23101;SDS011;11720;51.214;22.574;2023-08-08T07:09:43;1.52;;;1.10;;
23101;SDS011;11720;51.214;22.574;2023-08-08T07:12:09;4.35;;;1.40;;
23101;SDS011;11720;51.214;22.574;2023-08-08T07:14:35;4.43;;;1.42;;
23101;SDS011;11720;51.214;22.574;2023-08-08T07:17:01;1.42;;;1.02;;
23101;SDS011;11720;51.214;22.574;2023-08-08T07:19:28;2.90;;;1.35;;
23101;SDS011;11720;51.214;22.574;2023-08-08T07:21:54;5.75;;;1.23;;
23101;SDS011;11720;51.214;22.574;2023-08-08T07:24:20;2.60;;;1.42;;
23101;SDS011;11720;51.214;22.574;2023-08-08T07:26:46;6.28;;;1.50;;
23101;SDS011;11720;51.214;22.574;2023-08-08T07:29:12;4.63;;;1.10;;
23101;SDS011;11720;51.214;22.574;2023-08-08T07:31:38;1.75;;;1.23;;
23101;SDS011;11720;51.214;22.574;2023-08-08T07:34:03;3.97;;;1.17;;
23101;SDS011;11720;51.214;22.574;2023-08-08T07:36:29;3.65;;;1.60;;
23101;SDS011;11720;51.214;22.574;2023-08-08T07:38:55;2.20;;;0.85;;
23101;SDS011;11720;51.214;22.574;2023-08-08T07:41:24;1.42;;;0.95;;
23101;SDS011;11720;51.214;22.574;2023-08-08T07:43:51;2.42;;;0.95;;
23101;SDS011;11720;51.214;22.574;2023-08-08T07:46:17;4.80;;;1.50;;
23101;SDS011;11720;51.214;22.574;2023-08-08T07:48:43;4.93;;;1.20;;
23101;SDS011;11720;51.214;22.574;2023-08-08T07:51:09;2.08;;;1.33;;
23101;SDS011;11720;51.214;22.574;2023-08-08T07:53:35;2.70;;;1.17;;
23101;SDS011;11720;51.214;22.574;2023-08-08T07:56:00;3.28;;;1.08;;
23101;SDS011;11720;51.214;22.574;2023-08-08T07:58:27;1.75;;;1.02;;
23101;SDS011;11720;51.214;22.574;2023-08-08T08:00:52;3.95;;;1.30;;
23101;SDS011;11720;51.214;22.574;2023-08-08T08:03:19;1.90;;;1.50;;
23101;SDS011;11720;51.214;22.574;2023-08-08T08:05:45;5.95;;;1.38;;
23101;SDS011;11720;51.214;22.574;2023-08-08T08:08:11;2.50;;;1.35;;
23101;SDS011;11720;51.214;22.574;2023-08-08T08:10:37;1.83;;;0.95;;
23101;SDS011;11720;51.214;22.574;2023-08-08T08:13:03;3.00;;;1.30;;
23101;SDS011;11720;51.214;22.574;2023-08-08T08:15:29;4.80;;;1.02;;
23101;SDS011;11720;51.214;22.574;2023-08-08T08:17:55;1.27;;;1.00;;
23101;SDS011;11720;51.214;22.574;2023-08-08T08:20:21;2.25;;;1.25;;
23101;SDS011;11720;51.214;22.574;2023-08-08T08:22:47;1.70;;;1.25;;
23101;SDS011;11720;51.214;22.574;2023-08-08T08:25:13;1.40;;;1.10;;
23101;SDS011;11720;51.214;22.574;2023-08-08T08:27:39;2.78;;;0.90;;
23101;SDS011;11720;51.214;22.574;2023-08-08T08:30:05;1.27;;;1.08;;
23101;SDS011;11720;51.214;22.574;2023-08-08T08:32:34;3.00;;;0.90;;
23101;SDS011;11720;51.214;22.574;2023-08-08T08:35:01;2.70;;;1.02;;
23101;SDS011;11720;51.214;22.574;2023-08-08T08:37:29;2.60;;;1.20;;
23101;SDS011;11720;51.214;22.574;2023-08-08T08:39:55;6.85;;;1.30;;
23101;SDS011;11720;51.214;22.574;2023-08-08T08:42:21;1.20;;;1.10;;
23101;SDS011;11720;51.214;22.574;2023-08-08T08:44:50;3.22;;;1.15;;
23101;SDS011;11720;51.214;22.574;2023-08-08T08:47:17;5.68;;;1.30;;
23101;SDS011;11720;51.214;22.574;2023-08-08T08:49:45;2.40;;;1.23;;
23101;SDS011;11720;51.214;22.574;2023-08-08T08:52:11;1.35;;;0.90;;
23101;SDS011;11720;51.214;22.574;2023-08-08T08:54:37;2.22;;;0.70;;
23101;SDS011;11720;51.214;22.574;2023-08-08T08:57:03;2.65;;;1.23;;
23101;SDS011;11720;51.214;22.574;2023-08-08T08:59:30;1.58;;;1.20;;
23101;SDS011;11720;51.214;22.574;2023-08-08T09:01:56;1.88;;;1.08;;
23101;SDS011;11720;51.214;22.574;2023-08-08T09:04:22;1.00;;;0.85;;
23101;SDS011;11720;51.214;22.574;2023-08-08T09:06:52;4.25;;;1.08;;
23101;SDS011;11720;51.214;22.574;2023-08-08T09:09:18;2.92;;;1.30;;
23101;SDS011;11720;51.214;22.574;2023-08-08T09:11:50;1.75;;;1.02;;
23101;SDS011;11720;51.214;22.574;2023-08-08T09:14:21;2.22;;;0.77;;
23101;SDS011;11720;51.214;22.574;2023-08-08T09:16:48;2.38;;;0.70;;
23101;SDS011;11720;51.214;22.574;2023-08-08T09:19:21;1.42;;;0.98;;
23101;SDS011;11720;51.214;22.574;2023-08-08T09:21:48;1.48;;;0.80;;
23101;SDS011;11720;51.214;22.574;2023-08-08T09:24:18;2.42;;;1.00;;
23101;SDS011;11720;51.214;22.574;2023-08-08T09:26:47;1.42;;;1.08;;
23101;SDS011;11720;51.214;22.574;2023-08-08T09:29:13;1.92;;;1.23;;
23101;SDS011;11720;51.214;22.574;2023-08-08T09:31:42;3.10;;;1.05;;
23101;SDS011;11720;51.214;22.574;2023-08-08T09:34:08;1.15;;;0.70;;
23101;SDS011;11720;51.214;22.574;2023-08-08T09:36:36;3.47;;;0.90;;
23101;SDS011;11720;51.214;22.574;2023-08-08T09:39:02;0.82;;;0.80;;
23101;SDS011;11720;51.214;22.574;2023-08-08T09:41:28;2.30;;;1.17;;
23101;SDS011;11720;51.214;22.574;2023-08-08T09:43:58;1.45;;;1.00;;
23101;SDS011;11720;51.214;22.574;2023-08-08T09:46:24;0.73;;;0.60;;
23101;SDS011;11720;51.214;22.574;2023-08-08T09:48:50;1.05;;;0.77;;
23101;SDS011;11720;51.214;22.574;2023-08-08T09:51:17;1.80;;;0.90;;
23101;SDS011;11720;51.214;22.574;2023-08-08T09:53:45;1.48;;;0.68;;
23101;SDS011;11720;51.214;22.574;2023-08-08T09:56:12;1.48;;;1.00;;
23101;SDS011;11720;51.214;22.574;2023-08-08T09:58:39;1.63;;;1.00;;
23101;SDS011;11720;51.214;22.574;2023-08-08T10:01:07;1.45;;;1.10;;
23101;SDS011;11720;51.214;22.574;2023-08-08T10:03:33;4.45;;;1.00;;
23101;SDS011;11720;51.214;22.574;2023-08-08T10:06:01;1.13;;;0.80;;
23101;SDS011;11720;51.214;22.574;2023-08-08T10:08:30;1.45;;;0.80;;
23101;SDS011;11720;51.214;22.574;2023-08-08T10:10:56;0.50;;;0.47;;
23101;SDS011;11720;51.214;22.574;2023-08-08T10:13:22;1.35;;;0.93;;
23101;SDS011;11720;51.214;22.574;2023-08-08T10:15:49;1.85;;;0.82;;
23101;SDS011;11720;51.214;22.574;2023-08-08T10:18:16;1.55;;;0.82;;
23101;SDS011;11720;51.214;22.574;2023-08-08T10:20:43;1.20;;;1.10;;
23101;SDS011;11720;51.214;22.574;2023-08-08T10:23:14;1.45;;;0.60;;
23101;SDS011;11720;51.214;22.574;2023-08-08T10:25:46;3.03;;;1.00;;
23101;SDS011;11720;51.214;22.574;2023-08-08T10:28:17;0.60;;;0.60;;
23101;SDS011;11720;51.214;22.574;2023-08-08T10:36:13;1.50;;;0.82;;
23101;SDS011;11720;51.214;22.574;2023-08-08T10:41:09;2.22;;;0.82;;
23101;SDS011;11720;51.214;22.574;2023-08-08T10:43:37;0.80;;;0.80;;
23101;SDS011;11720;51.214;22.574;2023-08-08T10:46:03;2.00;;;0.90;;
23101;SDS011;11720;51.214;22.574;2023-08-08T10:48:29;2.80;;;0.77;;
23101;SDS011;11720;51.214;22.574;2023-08-08T10:50:59;0.90;;;0.80;;
23101;SDS011;11720;51.214;22.574;2023-08-08T10:53:25;1.23;;;0.80;;
23101;SDS011;11720;51.214;22.574;2023-08-08T10:56:02;1.10;;;0.98;;
23101;SDS011;11720;51.214;22.574;2023-08-08T10:58:36;1.63;;;0.88;;
23101;SDS011;11720;51.214;22.574;2023-08-08T11:01:05;1.80;;;0.80;;
23101;SDS011;11720;51.214;22.574;2023-08-08T11:03:36;4.60;;;0.60;;
23101;SDS011;11720;51.214;22.574;2023-08-08T11:06:02;2.97;;;0.98;;
23101;SDS011;11720;51.214;22.574;2023-08-08T11:08:29;1.52;;;0.85;;
23101;SDS011;11720;51.214;22.574;2023-08-08T11:10:56;3.05;;;0.90;;
23101;SDS011;11720;51.214;22.574;2023-08-08T11:13:25;2.15;;;0.80;;
23101;SDS011;11720;51.214;22.574;2023-08-08T11:15:51;4.80;;;0.70;;
23101;SDS011;11720;51.214;22.574;2023-08-08T11:18:19;1.45;;;0.70;;
23101;SDS011;11720;51.214;22.574;2023-08-08T11:20:46;0.47;;;0.45;;
23101;SDS011;11720;51.214;22.574;2023-08-08T11:23:12;1.65;;;0.90;;
23101;SDS011;11720;51.214;22.574;2023-08-08T11:25:42;2.47;;;1.00;;
23101;SDS011;11720;51.214;22.574;2023-08-08T11:28:09;1.83;;;0.90;;
23101;SDS011;11720;51.214;22.574;2023-08-08T11:30:41;1.17;;;0.68;;
23101;SDS011;11720;51.214;22.574;2023-08-08T11:33:09;2.85;;;1.17;;
23101;SDS011;11720;51.214;22.574;2023-08-08T11:35:42;1.40;;;0.57;;
23101;SDS011;11720;51.214;22.574;2023-08-08T11:38:10;0.70;;;0.65;;
23101;SDS011;11720;51.214;22.574;2023-08-08T11:40:37;0.77;;;0.50;;
23101;SDS011;11720;51.214;22.574;2023-08-08T11:43:03;1.63;;;1.10;;
23101;SDS011;11720;51.214;22.574;2023-08-08T11:45:32;0.52;;;0.50;;
23101;SDS011;11720;51.214;22.574;2023-08-08T11:47:58;0.77;;;0.77;;
23101;SDS011;11720;51.214;22.574;2023-08-08T11:50:25;1.95;;;0.90;;
23101;SDS011;11720;51.214;22.574;2023-08-08T11:52:54;1.33;;;1.00;;
23101;SDS011;11720;51.214;22.574;2023-08-08T11:55:20;2.05;;;0.73;;
23101;SDS011;11720;51.214;22.574;2023-08-08T11:57:53;2.30;;;1.10;;
23101;SDS011;11720;51.214;22.574;2023-08-08T12:03:46;3.47;;;0.93;;
23101;SDS011;11720;51.214;22.574;2023-08-08T12:06:12;1.20;;;0.60;;
23101;SDS011;11720;51.214;22.574;2023-08-08T12:08:43;0.80;;;0.80;;
23101;SDS011;11720;51.214;22.574;2023-08-08T12:11:10;0.82;;;0.57;;
23101;SDS011;11720;51.214;22.574;2023-08-08T12:13:38;2.75;;;0.90;;
23101;SDS011;11720;51.214;22.574;2023-08-08T12:16:06;2.35;;;1.30;;
23101;SDS011;11720;51.214;22.574;2023-08-08T12:18:33;1.23;;;0.60;;
23101;SDS011;11720;51.214;22.574;2023-08-08T12:21:00;0.57;;;0.57;;
23101;SDS011;11720;51.214;22.574;2023-08-08T12:23:26;1.40;;;0.65;;
23101;SDS011;11720;51.214;22.574;2023-08-08T12:25:53;1.50;;;0.95;;
23101;SDS011;11720;51.214;22.574;2023-08-08T12:28:21;1.90;;;0.88;;
23101;SDS011;11720;51.214;22.574;2023-08-08T12:30:47;1.17;;;0.80;;
23101;SDS011;11720;51.214;22.574;2023-08-08T12:33:13;1.48;;;1.05;;
23101;SDS011;11720;51.214;22.574;2023-08-08T12:35:39;1.08;;;0.85;;
23101;SDS011;11720;51.214;22.574;2023-08-08T12:38:05;1.58;;;0.90;;
23101;SDS011;11720;51.214;22.574;2023-08-08T12:40:31;1.65;;;0.68;;
23101;SDS011;11720;51.214;22.574;2023-08-08T12:42:57;1.35;;;0.75;;
23101;SDS011;11720;51.214;22.574;2023-08-08T12:45:22;0.88;;;0.70;;
23101;SDS011;11720;51.214;22.574;2023-08-08T12:47:50;1.88;;;1.05;;
23101;SDS011;11720;51.214;22.574;2023-08-08T12:50:16;1.70;;;0.65;;
23101;SDS011;11720;51.214;22.574;2023-08-08T12:52:43;1.00;;;0.75;;
23101;SDS011;11720;51.214;22.574;2023-08-08T12:55:09;1.77;;;0.80;;
23101;SDS011;11720;51.214;22.574;2023-08-08T12:57:36;1.60;;;0.90;;
23101;SDS011;11720;51.214;22.574;2023-08-08T13:00:03;1.95;;;1.13;;
23101;SDS011;11720;51.214;22.574;2023-08-08T13:02:29;1.90;;;0.82;;
23101;SDS011;11720;51.214;22.574;2023-08-08T13:04:55;0.77;;;0.65;;
23101;SDS011;11720;51.214;22.574;2023-08-08T13:07:21;1.10;;;0.68;;
23101;SDS011;11720;51.214;22.574;2023-08-08T13:09:47;2.78;;;0.90;;
23101;SDS011;11720;51.214;22.574;2023-08-08T13:12:13;0.60;;;0.57;;
23101;SDS011;11720;51.214;22.574;2023-08-08T13:14:39;0.93;;;0.70;;
23101;SDS011;11720;51.214;22.574;2023-08-08T13:17:05;2.35;;;0.65;;
23101;SDS011;11720;51.214;22.574;2023-08-08T13:19:34;1.20;;;0.70;;
23101;SDS011;11720;51.214;22.574;2023-08-08T13:22:00;1.20;;;1.00;;
23101;SDS011;11720;51.214;22.574;2023-08-08T13:24:25;0.80;;;0.77;;
23101;SDS011;11720;51.214;22.574;2023-08-08T13:26:51;0.70;;;0.70;;
23101;SDS011;11720;51.214;22.574;2023-08-08T13:29:17;6.07;;;0.88;;
23101;SDS011;11720;51.214;22.574;2023-08-08T13:31:43;1.20;;;0.73;;
23101;SDS011;11720;51.214;22.574;2023-08-08T13:34:09;0.95;;;0.80;;
23101;SDS011;11720;51.214;22.574;2023-08-08T13:36:35;0.85;;;0.65;;
23101;SDS011;11720;51.214;22.574;2023-08-08T13:39:01;1.80;;;1.00;;
23101;SDS011;11720;51.214;22.574;2023-08-08T13:41:29;3.17;;;0.80;;
23101;SDS011;11720;51.214;22.574;2023-08-08T13:43:55;0.75;;;0.70;;
23101;SDS011;11720;51.214;22.574;2023-08-08T13:46:21;0.70;;;0.60;;
23101;SDS011;11720;51.214;22.574;2023-08-08T13:48:47;1.63;;;0.70;;
23101;SDS011;11720;51.214;22.574;2023-08-08T13:51:13;2.30;;;1.00;;
23101;SDS011;11720;51.214;22.574;2023-08-08T13:53:39;2.45;;;0.80;;
23101;SDS011;11720;51.214;22.574;2023-08-08T13:56:06;2.17;;;0.98;;
23101;SDS011;11720;51.214;22.574;2023-08-08T13:58:32;1.48;;;1.05;;
23101;SDS011;11720;51.214;22.574;2023-08-08T14:01:00;0.73;;;0.73;;
23101;SDS011;11720;51.214;22.574;2023-08-08T14:03:26;1.60;;;0.80;;
23101;SDS011;11720;51.214;22.574;2023-08-08T14:05:55;0.63;;;0.63;;
23101;SDS011;11720;51.214;22.574;2023-08-08T14:08:22;7.55;;;1.02;;
23101;SDS011;11720;51.214;22.574;2023-08-08T14:10:48;1.10;;;0.85;;
23101;SDS011;11720;51.214;22.574;2023-08-08T14:13:14;1.10;;;0.70;;
23101;SDS011;11720;51.214;22.574;2023-08-08T14:15:40;2.97;;;0.90;;
23101;SDS011;11720;51.214;22.574;2023-08-08T14:18:08;1.70;;;1.00;;
23101;SDS011;11720;51.214;22.574;2023-08-08T14:20:35;0.77;;;0.70;;
23101;SDS011;11720;51.214;22.574;2023-08-08T14:23:01;0.88;;;0.88;;
23101;SDS011;11720;51.214;22.574;2023-08-08T14:25:27;1.20;;;0.90;;
23101;SDS011;11720;51.214;22.574;2023-08-08T14:27:57;2.60;;;0.80;;
23101;SDS011;11720;51.214;22.574;2023-08-08T14:30:23;1.15;;;0.82;;
23101;SDS011;11720;51.214;22.574;2023-08-08T14:32:52;1.25;;;0.90;;
23101;SDS011;11720;51.214;22.574;2023-08-08T14:35:18;1.05;;;0.77;;
23101;SDS011;11720;51.214;22.574;2023-08-08T14:37:44;4.18;;;0.93;;
23101;SDS011;11720;51.214;22.574;2023-08-08T14:40:13;2.08;;;0.85;;
23101;SDS011;11720;51.214;22.574;2023-08-08T14:42:41;1.75;;;0.82;;